Time,TemperatureF,DewpointF,PressureIn,WindDirection,WindDirectionDegrees,WindSpeedMPH,WindSpeedGustMPH,Humidity,HourlyPrecipIn,Conditions,Clouds,dailyrainin,SoftwareType,DateUTC
2013-05-14 00:01:00,41.2,23.0,29.23,ESE,109,0.0,0.0,48,0.00,,---,0.00,VWS V14.01,2013-05-14 04:01:00,
2013-05-14 00:02:00,41.2,23.0,29.23,ESE,109,0.0,0.0,48,0.00,,---,0.00,VWS V14.01,2013-05-14 04:02:00,
2013-05-14 00:04:00,41.2,23.0,29.23,ESE,109,0.0,0.0,48,0.00,,---,0.00,VWS V14.01,2013-05-14 04:04:00,
2013-05-14 00:06:00,41.0,22.8,29.23,ESE,109,0.0,0.0,48,0.00,,---,0.00,VWS V14.01,2013-05-14 04:06:00,
2013-05-14 00:10:00,41.0,22.8,29.23,ESE,109,0.0,0.0,48,0.00,,---,0.00,VWS V14.01,2013-05-14 04:10:00,
2013-05-14 00:15:00,41.0,23.3,29.26,ESE,109,0.0,0.0,49,0.00,,---,0.00,VWS V14.01,2013-05-14 04:15:00,
2013-05-14 00:20:00,41.0,23.3,29.26,ESE,109,0.0,0.0,49,0.00,,---,0.00,VWS V14.01,2013-05-14 04:20:00,
2013-05-14 00:25:00,40.8,23.1,29.26,ESE,109,0.0,0.0,49,0.00,,---,0.00,VWS V14.01,2013-05-14 04:25:00,
2013-05-14 00:30:00,40.6,23.0,29.26,ESE,109,0.0,0.0,49,0.00,,---,0.00,VWS V14.01,2013-05-14 04:30:00,
2013-05-14 00:36:00,40.6,23.0,29.26,ESE,109,0.0,0.0,49,0.00,,---,0.00,VWS V14.01,2013-05-14 04:36:00,
2013-05-14 00:41:00,40.5,22.8,29.26,ESE,109,0.0,0.0,49,0.00,,---,0.00,VWS V14.01,2013-05-14 04:41:00,
2013-05-14 00:46:00,40.3,22.7,29.26,ESE,109,0.0,0.0,49,0.00,,---,0.00,VWS V14.01,2013-05-14 04:46:00,
2013-05-14 00:51:00,40.3,23.1,29.26,ESE,109,0.0,0.0,50,0.00,,---,0.00,VWS V14.01,2013-05-14 04:51:00,
2013-05-14 00:56:00,40.1,22.5,29.26,ESE,109,0.0,0.0,49,0.00,,---,0.00,VWS V14.01,2013-05-14 04:56:00,
2013-05-14 01:01:00,40.1,22.5,29.23,ESE,109,0.0,0.0,49,0.00,,---,0.00,VWS V14.01,2013-05-14 05:01:00,
2013-05-14 01:07:00,39.9,22.8,29.23,ESE,109,0.0,0.0,50,0.00,,---,0.00,VWS V14.01,2013-05-14 05:07:00,
2013-05-14 01:12:00,39.9,22.8,29.23,ESE,109,0.0,0.0,50,0.00,,---,0.00,VWS V14.01,2013-05-14 05:12:00,
2013-05-14 01:17:00,39.7,22.2,29.23,ESE,109,0.0,0.0,49,0.00,,---,0.00,VWS V14.01,2013-05-14 05:17:00,
2013-05-14 01:22:00,39.6,22.0,29.23,ESE,109,0.0,0.0,49,0.00,,---,0.00,VWS V14.01,2013-05-14 05:22:00,
2013-05-14 01:27:00,39.4,21.8,29.23,ESE,109,0.0,0.0,49,0.00,,---,0.00,VWS V14.01,2013-05-14 05:27:00,
2013-05-14 01:32:00,39.2,21.7,29.23,ESE,109,0.0,0.0,49,0.00,,---,0.00,VWS V14.01,2013-05-14 05:32:00,
2013-05-14 01:37:00,39.0,21.5,29.23,ESE,109,0.0,0.0,49,0.00,,---,0.00,VWS V14.01,2013-05-14 05:37:00,
2013-05-14 01:42:00,38.8,21.3,29.23,ESE,109,0.0,0.0,49,0.00,,---,0.00,VWS V14.01,2013-05-14 05:42:00,
2013-05-14 01:47:00,38.8,21.3,29.23,ESE,109,0.0,0.0,49,0.00,,---,0.00,VWS V14.01,2013-05-14 05:47:00,
2013-05-14 01:52:00,38.7,21.2,29.23,ESE,109,0.0,0.0,49,0.00,,---,0.00,VWS V14.01,2013-05-14 05:52:00,
2013-05-14 01:58:00,38.5,21.0,29.23,ESE,109,0.0,0.0,49,0.00,,---,0.00,VWS V14.01,2013-05-14 05:58:00,
2013-05-14 02:03:00,38.5,21.0,29.23,ESE,109,0.0,0.0,49,0.00,,---,0.00,VWS V14.01,2013-05-14 06:03:00,
2013-05-14 02:08:00,38.5,21.0,29.23,ESE,109,0.0,0.0,49,0.00,,---,0.00,VWS V14.01,2013-05-14 06:08:00,
2013-05-14 02:13:00,38.3,20.8,29.23,ESE,109,0.0,0.0,49,0.00,,---,0.00,VWS V14.01,2013-05-14 06:13:00,
2013-05-14 02:18:00,38.3,21.3,29.23,ESE,109,0.0,0.0,50,0.00,,---,0.00,VWS V14.01,2013-05-14 06:18:00,
2013-05-14 02:24:00,38.3,21.3,29.23,ESE,109,0.0,0.0,50,0.00,,---,0.00,VWS V14.01,2013-05-14 06:24:00,
2013-05-14 02:29:00,38.3,21.3,29.23,ESE,109,0.0,0.0,50,0.00,,---,0.00,VWS V14.01,2013-05-14 06:29:00,
2013-05-14 02:34:00,38.1,21.6,29.23,ESE,109,0.0,0.0,51,0.00,,---,0.00,VWS V14.01,2013-05-14 06:34:00,
2013-05-14 02:39:00,38.1,21.6,29.23,ESE,109,0.0,0.0,51,0.00,,---,0.00,VWS V14.01,2013-05-14 06:39:00,
2013-05-14 02:44:00,38.1,21.6,29.23,ESE,109,0.0,0.0,51,0.00,,---,0.00,VWS V14.01,2013-05-14 06:44:00,
2013-05-14 02:49:00,38.1,21.6,29.23,ESE,109,0.0,0.0,51,0.00,,---,0.00,VWS V14.01,2013-05-14 06:49:00,
2013-05-14 02:54:00,38.1,21.6,29.23,ESE,109,0.0,0.0,51,0.00,,---,0.00,VWS V14.01,2013-05-14 06:54:00,
2013-05-14 02:59:00,38.1,22.1,29.23,ESE,109,0.0,0.0,52,0.00,,---,0.00,VWS V14.01,2013-05-14 06:59:00,
2013-05-14 03:04:00,38.1,22.1,29.23,ESE,109,0.0,0.0,52,0.00,,---,0.00,VWS V14.01,2013-05-14 07:04:00,
2013-05-14 03:09:00,38.3,22.2,29.23,ESE,109,0.0,0.0,52,0.00,,---,0.00,VWS V14.01,2013-05-14 07:09:00,
2013-05-14 03:14:00,38.3,22.2,29.23,ESE,109,0.0,0.0,52,0.00,,---,0.00,VWS V14.01,2013-05-14 07:14:00,
2013-05-14 03:19:00,38.1,22.1,29.23,ESE,109,0.0,0.0,52,0.00,,---,0.00,VWS V14.01,2013-05-14 07:19:00,
2013-05-14 03:24:00,37.9,21.9,29.23,ESE,109,0.0,0.0,52,0.00,,---,0.00,VWS V14.01,2013-05-14 07:24:00,
2013-05-14 03:29:00,37.8,21.7,29.23,ESE,109,0.0,0.0,52,0.00,,---,0.00,VWS V14.01,2013-05-14 07:29:00,
2013-05-14 03:34:00,37.6,21.6,29.23,ESE,109,0.0,0.0,52,0.00,,---,0.00,VWS V14.01,2013-05-14 07:34:00,
2013-05-14 03:39:00,37.4,21.4,29.23,ESE,109,0.0,0.0,52,0.00,,---,0.00,VWS V14.01,2013-05-14 07:39:00,
2013-05-14 03:44:00,37.4,21.4,29.23,ESE,109,0.0,0.0,52,0.00,,---,0.00,VWS V14.01,2013-05-14 07:44:00,
2013-05-14 03:49:00,37.4,21.4,29.23,ESE,109,0.0,0.0,52,0.00,,---,0.00,VWS V14.01,2013-05-14 07:49:00,
2013-05-14 03:54:00,37.2,21.2,29.23,ESE,109,0.0,0.0,52,0.00,,---,0.00,VWS V14.01,2013-05-14 07:54:00,
2013-05-14 03:59:00,37.0,21.1,29.23,ESE,109,0.0,0.0,52,0.00,,---,0.00,VWS V14.01,2013-05-14 07:59:00,
2013-05-14 04:04:00,37.0,21.1,29.23,ESE,109,0.0,0.0,52,0.00,,---,0.00,VWS V14.01,2013-05-14 08:04:00,
2013-05-14 04:09:00,36.9,20.9,29.23,ESE,109,0.0,0.0,52,0.00,,---,0.00,VWS V14.01,2013-05-14 08:09:00,
2013-05-14 04:15:00,36.9,20.9,29.23,ESE,109,0.0,0.0,52,0.00,,---,0.00,VWS V14.01,2013-05-14 08:15:00,
2013-05-14 04:20:00,36.9,21.3,29.23,ESE,109,0.0,0.0,53,0.00,,---,0.00,VWS V14.01,2013-05-14 08:20:00,
2013-05-14 04:25:00,36.9,21.3,29.23,ESE,109,0.0,0.0,53,0.00,,---,0.00,VWS V14.01,2013-05-14 08:25:00,
2013-05-14 04:30:00,36.9,21.3,29.23,ESE,109,0.0,0.0,53,0.00,,---,0.00,VWS V14.01,2013-05-14 08:30:00,
2013-05-14 04:36:00,36.9,21.3,29.23,ESE,109,0.0,0.0,53,0.00,,---,0.00,VWS V14.01,2013-05-14 08:36:00,
2013-05-14 04:41:00,36.9,21.8,29.23,ESE,109,0.0,0.0,54,0.00,,---,0.00,VWS V14.01,2013-05-14 08:41:00,
2013-05-14 04:46:00,37.0,22.0,29.23,ESE,109,0.0,0.0,54,0.00,,---,0.00,VWS V14.01,2013-05-14 08:46:00,
2013-05-14 04:51:00,37.0,22.0,29.23,ESE,109,0.0,0.0,54,0.00,,---,0.00,VWS V14.01,2013-05-14 08:51:00,
2013-05-14 04:57:00,37.0,22.4,29.23,ESE,109,0.0,0.0,55,0.00,,---,0.00,VWS V14.01,2013-05-14 08:57:00,
2013-05-14 05:02:00,37.0,22.4,29.23,ESE,109,0.0,0.0,55,0.00,,---,0.00,VWS V14.01,2013-05-14 09:02:00,
2013-05-14 05:07:00,37.0,22.4,29.23,ESE,109,0.0,0.0,55,0.00,,---,0.00,VWS V14.01,2013-05-14 09:07:00,
2013-05-14 05:13:00,37.0,22.4,29.23,ESE,109,0.0,0.0,55,0.00,,---,0.00,VWS V14.01,2013-05-14 09:13:00,
2013-05-14 05:18:00,37.0,22.4,29.23,ESE,109,0.0,0.0,55,0.00,,---,0.00,VWS V14.01,2013-05-14 09:18:00,
2013-05-14 05:23:00,36.9,22.2,29.23,ESE,109,0.0,0.0,55,0.00,,---,0.00,VWS V14.01,2013-05-14 09:23:00,
2013-05-14 05:28:00,36.9,22.6,29.23,ESE,109,0.0,0.0,56,0.00,,---,0.00,VWS V14.01,2013-05-14 09:28:00,
2013-05-14 05:33:00,36.9,22.6,29.23,ESE,109,0.0,0.0,56,0.00,,---,0.00,VWS V14.01,2013-05-14 09:33:00,
2013-05-14 05:38:00,37.0,22.8,29.23,ESE,109,0.0,0.0,56,0.00,,---,0.00,VWS V14.01,2013-05-14 09:38:00,
2013-05-14 05:44:00,37.0,23.2,29.23,ESE,109,0.0,0.0,57,0.00,,---,0.00,VWS V14.01,2013-05-14 09:44:00,
2013-05-14 05:49:00,37.0,23.2,29.23,ESE,109,0.0,0.0,57,0.00,,---,0.00,VWS V14.01,2013-05-14 09:49:00,
2013-05-14 05:54:00,37.0,23.2,29.23,ESE,109,0.0,0.0,57,0.00,,---,0.00,VWS V14.01,2013-05-14 09:54:00,
2013-05-14 06:00:00,37.2,23.4,29.23,ESE,109,0.0,0.0,57,0.00,,---,0.00,VWS V14.01,2013-05-14 10:00:00,
2013-05-14 06:05:00,37.4,24.0,29.23,ESE,109,0.0,0.0,58,0.00,,---,0.00,VWS V14.01,2013-05-14 10:05:00,
2013-05-14 06:10:00,37.4,24.0,29.23,ESE,109,0.0,0.0,58,0.00,,---,0.00,VWS V14.01,2013-05-14 10:10:00,
2013-05-14 06:15:00,37.6,24.2,29.23,ESE,109,0.0,0.0,58,0.00,,---,0.00,VWS V14.01,2013-05-14 10:15:00,
2013-05-14 06:21:00,37.9,24.9,29.23,ESE,109,0.0,0.0,59,0.00,,---,0.00,VWS V14.01,2013-05-14 10:21:00,
2013-05-14 06:26:00,38.1,25.1,29.23,ESE,109,0.0,0.0,59,0.00,,---,0.00,VWS V14.01,2013-05-14 10:26:00,
2013-05-14 06:31:00,38.5,25.0,29.26,ESE,109,0.0,0.0,58,0.00,,---,0.00,VWS V14.01,2013-05-14 10:31:00,
2013-05-14 06:37:00,38.7,25.2,29.26,ESE,109,0.0,0.0,58,0.00,,---,0.00,VWS V14.01,2013-05-14 10:37:00,
2013-05-14 06:42:00,39.0,25.5,29.26,ESE,109,0.0,0.0,58,0.00,,---,0.00,VWS V14.01,2013-05-14 10:42:00,
2013-05-14 06:47:00,39.4,25.4,29.26,ESE,108,0.0,0.0,57,0.00,,---,0.00,VWS V14.01,2013-05-14 10:47:00,
2013-05-14 06:52:00,39.6,25.2,29.26,ESE,108,0.0,0.0,56,0.00,,---,0.00,VWS V14.01,2013-05-14 10:52:00,
2013-05-14 06:57:00,39.7,24.9,29.26,ENE,67,0.0,0.0,55,0.00,,---,0.00,VWS V14.01,2013-05-14 10:57:00,
2013-05-14 07:02:00,40.1,24.4,29.26,ENE,67,0.0,0.0,53,0.00,,---,0.00,VWS V14.01,2013-05-14 11:02:00,
2013-05-14 07:07:00,40.6,24.4,29.26,ENE,67,0.0,0.0,52,0.00,,---,0.00,VWS V14.01,2013-05-14 11:07:00,
2013-05-14 07:12:00,40.6,23.9,29.26,ENE,66,0.0,0.0,51,0.00,,---,0.00,VWS V14.01,2013-05-14 11:12:00,
2013-05-14 07:17:00,40.8,22.7,29.26,ENE,67,0.0,0.0,48,0.00,,---,0.00,VWS V14.01,2013-05-14 11:17:00,
2013-05-14 07:22:00,41.4,22.1,29.26,ENE,67,0.0,0.0,46,0.00,,---,0.00,VWS V14.01,2013-05-14 11:22:00,
2013-05-14 07:27:00,41.7,21.4,29.26,ENE,67,0.0,0.0,44,0.00,,---,0.00,VWS V14.01,2013-05-14 11:27:00,
2013-05-14 07:32:00,42.3,20.8,29.26,ENE,67,0.0,2.7,42,0.00,,---,0.00,VWS V14.01,2013-05-14 11:32:00,
2013-05-14 07:37:00,43.0,20.9,29.26,ENE,66,0.0,0.0,41,0.00,,---,0.00,VWS V14.01,2013-05-14 11:37:00,
2013-05-14 07:42:00,43.3,20.6,29.26,ENE,66,0.0,0.0,40,0.00,,---,0.00,VWS V14.01,2013-05-14 11:42:00,
2013-05-14 07:47:00,44.1,20.1,29.26,ENE,66,0.0,0.0,38,0.00,,---,0.00,VWS V14.01,2013-05-14 11:47:00,
2013-05-14 07:52:00,44.6,20.0,29.26,North,6,0.0,3.6,37,0.00,,---,0.00,VWS V14.01,2013-05-14 11:52:00,
2013-05-14 07:57:00,45.3,18.6,29.26,NW,306,0.0,0.0,34,0.00,,---,0.00,VWS V14.01,2013-05-14 11:57:00,
2013-05-14 08:03:00,46.0,17.9,29.26,ENE,75,0.0,0.0,32,0.00,,---,0.00,VWS V14.01,2013-05-14 12:03:00,
2013-05-14 08:08:00,46.8,17.0,29.26,ENE,76,0.0,0.0,30,0.00,,---,0.00,VWS V14.01,2013-05-14 12:08:00,
2013-05-14 08:13:00,47.1,15.7,29.26,North,351,0.0,3.1,28,0.00,,---,0.00,VWS V14.01,2013-05-14 12:13:00,
2013-05-14 08:18:00,47.3,15.0,29.26,NNE,18,0.0,0.0,27,0.00,,---,0.00,VWS V14.01,2013-05-14 12:18:00,
2013-05-14 08:23:00,47.5,15.2,29.26,NNE,30,0.0,4.0,27,0.00,,---,0.00,VWS V14.01,2013-05-14 12:23:00,
2013-05-14 08:28:00,48.2,16.6,29.26,ENE,58,2.7,3.6,28,0.00,,---,0.00,VWS V14.01,2013-05-14 12:28:00,
2013-05-14 08:33:00,48.7,16.3,29.26,East,81,0.0,3.6,27,0.00,,---,0.00,VWS V14.01,2013-05-14 12:33:00,
2013-05-14 08:38:00,48.7,15.4,29.26,North,351,0.0,3.6,26,0.00,,---,0.00,VWS V14.01,2013-05-14 12:38:00,
2013-05-14 08:43:00,48.9,13.7,29.26,North,351,3.1,4.9,24,0.00,,---,0.00,VWS V14.01,2013-05-14 12:43:00,
2013-05-14 08:48:00,49.3,14.0,29.26,ENE,63,0.0,3.6,24,0.00,,---,0.00,VWS V14.01,2013-05-14 12:48:00,
2013-05-14 08:53:00,50.2,16.6,29.26,ENE,71,0.0,3.6,26,0.00,,---,0.00,VWS V14.01,2013-05-14 12:53:00,
2013-05-14 08:58:00,50.9,14.4,29.26,NE,47,0.0,3.1,23,0.00,,---,0.00,VWS V14.01,2013-05-14 12:58:00,
2013-05-14 09:03:00,51.1,12.5,29.26,ENE,57,0.0,4.0,21,0.00,,---,0.00,VWS V14.01,2013-05-14 13:03:00,
2013-05-14 09:08:00,51.4,12.8,29.26,East,81,0.0,2.7,21,0.00,,---,0.00,VWS V14.01,2013-05-14 13:08:00,
2013-05-14 09:13:00,51.4,12.8,29.26,NE,34,0.0,0.0,21,0.00,,---,0.00,VWS V14.01,2013-05-14 13:13:00,
2013-05-14 09:18:00,52.0,13.3,29.26,West,262,0.0,3.1,21,0.00,,---,0.00,VWS V14.01,2013-05-14 13:18:00,
2013-05-14 09:23:00,52.7,12.8,29.26,NE,49,0.0,0.0,20,0.00,,---,0.00,VWS V14.01,2013-05-14 13:23:00,
2013-05-14 09:28:00,52.9,10.6,29.26,North,10,3.1,3.1,18,0.00,,---,0.00,VWS V14.01,2013-05-14 13:28:00,
2013-05-14 09:33:00,53.1,10.7,29.26,ENE,75,3.1,3.6,18,0.00,,---,0.00,VWS V14.01,2013-05-14 13:33:00,
2013-05-14 09:38:00,53.4,11.0,29.26,East,96,3.1,3.1,18,0.00,,---,0.00,VWS V14.01,2013-05-14 13:38:00,
2013-05-14 09:43:00,54.0,11.4,29.26,ENE,58,3.1,4.0,18,0.00,,---,0.00,VWS V14.01,2013-05-14 13:43:00,
2013-05-14 09:48:00,54.3,11.7,29.26,NNE,29,3.1,4.5,18,0.00,,---,0.00,VWS V14.01,2013-05-14 13:48:00,
2013-05-14 09:53:00,54.5,10.6,29.26,ENE,76,3.1,3.6,17,0.00,,---,0.00,VWS V14.01,2013-05-14 13:53:00,
2013-05-14 09:58:00,55.2,11.2,29.26,East,86,3.1,4.0,17,0.00,,---,0.00,VWS V14.01,2013-05-14 13:58:00,
2013-05-14 10:03:00,55.9,11.8,29.26,ENE,76,0.0,4.5,17,0.00,,---,0.00,VWS V14.01,2013-05-14 14:03:00,
2013-05-14 10:08:00,56.1,11.9,29.26,East,79,0.0,4.9,17,0.00,,---,0.00,VWS V14.01,2013-05-14 14:08:00,
2013-05-14 10:13:00,55.6,11.5,29.26,North,351,0.0,3.1,17,0.00,,---,0.00,VWS V14.01,2013-05-14 14:13:00,
2013-05-14 10:18:00,55.8,11.6,29.26,ENE,67,3.1,3.6,17,0.00,,---,0.00,VWS V14.01,2013-05-14 14:18:00,
2013-05-14 10:23:00,56.5,12.2,29.26,North,0,0.0,3.6,17,0.00,,---,0.00,VWS V14.01,2013-05-14 14:23:00,
2013-05-14 10:28:00,57.0,12.7,29.26,NE,55,0.0,4.9,17,0.00,,---,0.00,VWS V14.01,2013-05-14 14:28:00,
2013-05-14 10:33:00,56.8,12.5,29.26,NE,56,0.0,3.6,17,0.00,,---,0.00,VWS V14.01,2013-05-14 14:33:00,
2013-05-14 10:38:00,57.0,12.7,29.26,North,351,2.7,3.6,17,0.00,,---,0.00,VWS V14.01,2013-05-14 14:38:00,
2013-05-14 10:43:00,57.0,12.7,29.26,NE,53,0.0,3.6,17,0.00,,---,0.00,VWS V14.01,2013-05-14 14:43:00,
2013-05-14 10:48:00,57.7,13.2,29.26,ENE,69,2.7,3.6,17,0.00,,---,0.00,VWS V14.01,2013-05-14 14:48:00,
2013-05-14 10:53:00,58.5,13.8,29.26,ENE,66,0.0,4.0,17,0.00,,---,0.00,VWS V14.01,2013-05-14 14:53:00,
2013-05-14 10:58:00,58.8,14.1,29.26,NNE,26,0.0,3.1,17,0.00,,---,0.00,VWS V14.01,2013-05-14 14:58:00,
2013-05-14 11:03:00,58.1,13.5,29.26,NNE,32,2.7,3.1,17,0.00,,---,0.00,VWS V14.01,2013-05-14 15:03:00,
2013-05-14 11:08:00,57.2,12.8,29.26,ENE,57,0.0,3.1,17,0.00,,---,0.00,VWS V14.01,2013-05-14 15:08:00,
2013-05-14 11:13:00,56.8,12.5,29.26,NNE,31,0.0,0.0,17,0.00,,---,0.00,VWS V14.01,2013-05-14 15:13:00,
2013-05-14 11:18:00,56.3,12.1,29.26,East,84,2.7,2.7,17,0.00,,---,0.00,VWS V14.01,2013-05-14 15:18:00,
2013-05-14 11:23:00,55.9,11.8,29.26,ENE,58,0.0,0.0,17,0.00,,---,0.00,VWS V14.01,2013-05-14 15:23:00,
2013-05-14 11:28:00,55.6,11.5,29.26,NE,54,2.7,3.6,17,0.00,,---,0.00,VWS V14.01,2013-05-14 15:28:00,
2013-05-14 11:33:00,56.1,11.9,29.23,East,99,0.0,0.0,17,0.00,,---,0.00,VWS V14.01,2013-05-14 15:33:00,
2013-05-14 11:38:00,55.9,11.8,29.23,West,267,0.0,0.0,17,0.00,,---,0.00,VWS V14.01,2013-05-14 15:38:00,
2013-05-14 11:43:00,56.3,12.1,29.23,SE,134,0.0,0.0,17,0.00,,---,0.00,VWS V14.01,2013-05-14 15:43:00,
2013-05-14 11:48:00,56.7,12.4,29.23,NNE,20,0.0,2.7,17,0.00,,---,0.00,VWS V14.01,2013-05-14 15:48:00,
2013-05-14 11:53:00,57.2,12.8,29.23,North,351,0.0,0.0,17,0.00,,---,0.00,VWS V14.01,2013-05-14 15:53:00,
2013-05-14 11:58:00,57.6,13.1,29.23,NNE,28,0.0,3.1,17,0.00,,---,0.00,VWS V14.01,2013-05-14 15:58:00,
2013-05-14 12:03:00,58.1,13.5,29.23,SE,128,3.6,5.4,17,0.00,,---,0.00,VWS V14.01,2013-05-14 16:03:00,
2013-05-14 12:09:00,58.3,13.7,29.23,North,0,4.5,4.5,17,0.00,,---,0.00,VWS V14.01,2013-05-14 16:09:00,
2013-05-14 12:14:00,57.7,13.2,29.23,ESE,102,0.0,0.0,17,0.00,,---,0.00,VWS V14.01,2013-05-14 16:14:00,
2013-05-14 12:19:00,58.1,13.5,29.23,East,99,3.1,3.1,17,0.00,,---,0.00,VWS V14.01,2013-05-14 16:19:00,
2013-05-14 12:24:00,59.7,14.9,29.23,North,5,0.0,4.5,17,0.00,,---,0.00,VWS V14.01,2013-05-14 16:24:00,
2013-05-14 12:29:00,60.4,14.1,29.23,NE,48,0.0,3.1,16,0.00,,---,0.00,VWS V14.01,2013-05-14 16:29:00,
2013-05-14 12:34:00,60.1,13.8,29.23,East,82,4.5,4.5,16,0.00,,---,0.00,VWS V14.01,2013-05-14 16:34:00,
2013-05-14 12:40:00,61.0,14.5,29.23,North,0,2.7,4.5,16,0.00,,---,0.00,VWS V14.01,2013-05-14 16:40:00,
2013-05-14 12:45:00,61.5,14.9,29.23,ENE,71,2.7,4.5,16,0.00,,---,0.00,VWS V14.01,2013-05-14 16:45:00,
2013-05-14 12:50:00,62.2,15.5,29.23,East,84,0.0,0.0,16,0.00,,---,0.00,VWS V14.01,2013-05-14 16:50:00,
2013-05-14 12:55:00,61.3,14.8,29.23,ENE,62,0.0,3.6,16,0.00,,---,0.00,VWS V14.01,2013-05-14 16:55:00,
2013-05-14 13:00:00,60.8,14.4,29.23,NNW,345,3.1,4.0,16,0.00,,---,0.00,VWS V14.01,2013-05-14 17:00:00,
2013-05-14 13:05:00,60.4,14.1,29.23,East,82,2.7,4.0,16,0.00,,---,0.00,VWS V14.01,2013-05-14 17:05:00,
2013-05-14 13:10:00,59.5,14.7,29.23,ENE,77,2.7,5.4,17,0.00,,---,0.00,VWS V14.01,2013-05-14 17:10:00,
2013-05-14 13:15:00,58.5,13.8,29.23,North,351,2.7,3.1,17,0.00,,---,0.00,VWS V14.01,2013-05-14 17:15:00,
2013-05-14 13:20:00,58.5,13.8,29.23,ENE,63,2.7,4.0,17,0.00,,---,0.00,VWS V14.01,2013-05-14 17:20:00,
2013-05-14 13:25:00,58.8,14.1,29.23,ENE,74,2.7,4.0,17,0.00,,---,0.00,VWS V14.01,2013-05-14 17:25:00,
2013-05-14 13:30:00,59.5,14.7,29.23,SSE,163,3.6,6.7,17,0.00,,---,0.00,VWS V14.01,2013-05-14 17:30:00,
2013-05-14 13:35:00,58.5,13.8,29.23,East,84,0.0,2.7,17,0.00,,---,0.00,VWS V14.01,2013-05-14 17:35:00,
2013-05-14 13:40:00,58.1,13.5,29.23,NW,314,3.1,4.5,17,0.00,,---,0.00,VWS V14.01,2013-05-14 17:40:00,
2013-05-14 13:46:00,58.1,13.5,29.23,SE,128,0.0,0.0,17,0.00,,---,0.00,VWS V14.01,2013-05-14 17:46:00,
2013-05-14 13:51:00,59.2,14.4,29.23,ENE,75,0.0,2.7,17,0.00,,---,0.00,VWS V14.01,2013-05-14 17:51:00,
2013-05-14 13:56:00,59.0,14.3,29.23,NNE,20,0.0,3.6,17,0.00,,---,0.00,VWS V14.01,2013-05-14 17:56:00,
2013-05-14 14:01:00,59.5,14.7,29.23,North,351,3.1,4.5,17,0.00,,---,0.00,VWS V14.01,2013-05-14 18:01:00,
2013-05-14 14:06:00,59.7,14.9,29.23,East,86,0.0,3.6,17,0.00,,---,0.00,VWS V14.01,2013-05-14 18:06:00,
2013-05-14 14:11:00,60.1,13.8,29.23,ENE,69,0.0,3.1,16,0.00,,---,0.00,VWS V14.01,2013-05-14 18:11:00,
2013-05-14 14:16:00,59.7,14.9,29.23,NNW,333,0.0,4.0,17,0.00,,---,0.00,VWS V14.01,2013-05-14 18:16:00,
2013-05-14 14:21:00,59.4,14.6,29.23,ENE,61,0.0,2.7,17,0.00,,---,0.00,VWS V14.01,2013-05-14 18:21:00,
2013-05-14 14:26:00,58.8,14.1,29.23,East,84,3.1,3.1,17,0.00,,---,0.00,VWS V14.01,2013-05-14 18:26:00,
2013-05-14 14:32:00,58.5,13.8,29.21,NNW,344,3.1,5.4,17,0.00,,---,0.00,VWS V14.01,2013-05-14 18:32:00,
2013-05-14 14:37:00,58.1,13.5,29.21,East,84,0.0,0.0,17,0.00,,---,0.00,VWS V14.01,2013-05-14 18:37:00,
2013-05-14 14:42:00,58.3,13.7,29.21,NE,53,4.0,4.0,17,0.00,,---,0.00,VWS V14.01,2013-05-14 18:42:00,
2013-05-14 14:47:00,58.1,13.5,29.21,SE,142,4.5,5.4,17,0.00,,---,0.00,VWS V14.01,2013-05-14 18:47:00,
2013-05-14 14:52:00,57.6,13.1,29.21,SE,146,5.4,5.4,17,0.00,,---,0.00,VWS V14.01,2013-05-14 18:52:00,
2013-05-14 14:57:00,57.6,13.1,29.21,ENE,68,0.0,0.0,17,0.00,,---,0.00,VWS V14.01,2013-05-14 18:57:00,
2013-05-14 15:02:00,57.9,13.4,29.21,NE,48,0.0,3.6,17,0.00,,---,0.00,VWS V14.01,2013-05-14 19:02:00,
2013-05-14 15:08:00,58.1,13.5,29.21,ESE,121,0.0,3.1,17,0.00,,---,0.00,VWS V14.01,2013-05-14 19:08:00,
2013-05-14 15:13:00,58.1,13.5,29.21,ENE,75,0.0,4.0,17,0.00,,---,0.00,VWS V14.01,2013-05-14 19:13:00,
2013-05-14 15:18:00,58.5,13.8,29.21,East,93,0.0,2.7,17,0.00,,---,0.00,VWS V14.01,2013-05-14 19:18:00,
2013-05-14 15:23:00,58.5,13.8,29.21,ENE,65,3.1,3.6,17,0.00,,---,0.00,VWS V14.01,2013-05-14 19:23:00,
2013-05-14 15:28:00,58.3,13.7,29.21,ESE,118,0.0,3.6,17,0.00,,---,0.00,VWS V14.01,2013-05-14 19:28:00,
2013-05-14 15:33:00,57.9,13.4,29.21,East,98,0.0,3.6,17,0.00,,---,0.00,VWS V14.01,2013-05-14 19:33:00,
2013-05-14 15:38:00,57.7,13.2,29.21,East,91,0.0,0.0,17,0.00,,---,0.00,VWS V14.01,2013-05-14 19:38:00,
2013-05-14 15:43:00,57.4,12.9,29.21,East,91,2.7,3.1,17,0.00,,---,0.00,VWS V14.01,2013-05-14 19:43:00,
2013-05-14 15:48:00,57.4,12.9,29.21,SE,130,0.0,4.5,17,0.00,,---,0.00,VWS V14.01,2013-05-14 19:48:00,
2013-05-14 15:53:00,57.4,12.9,29.21,SE,133,0.0,0.0,17,0.00,,---,0.00,VWS V14.01,2013-05-14 19:53:00,
2013-05-14 15:58:00,57.4,12.9,29.21,East,93,2.7,4.0,17,0.00,,---,0.00,VWS V14.01,2013-05-14 19:58:00,
2013-05-14 16:04:00,57.2,12.8,29.21,SE,127,0.0,3.6,17,0.00,,---,0.00,VWS V14.01,2013-05-14 20:04:00,
2013-05-14 16:09:00,57.2,12.8,29.21,East,91,0.0,0.0,17,0.00,,---,0.00,VWS V14.01,2013-05-14 20:09:00,
2013-05-14 16:14:00,57.2,12.8,29.21,NE,54,2.7,3.6,17,0.00,,---,0.00,VWS V14.01,2013-05-14 20:14:00,
2013-05-14 16:19:00,57.0,12.7,29.21,ENE,60,0.0,3.6,17,0.00,,---,0.00,VWS V14.01,2013-05-14 20:19:00,
2013-05-14 16:24:00,57.0,12.7,29.21,SE,140,0.0,0.0,17,0.00,,---,0.00,VWS V14.01,2013-05-14 20:24:00,
2013-05-14 16:29:00,56.7,12.4,29.21,East,93,0.0,3.1,17,0.00,,---,0.00,VWS V14.01,2013-05-14 20:29:00,
2013-05-14 16:35:00,56.5,12.2,29.18,SSW,196,0.0,0.0,17,0.00,,---,0.00,VWS V14.01,2013-05-14 20:35:00,
2013-05-14 16:40:00,56.5,12.2,29.18,ESE,103,0.0,0.0,17,0.00,,---,0.00,VWS V14.01,2013-05-14 20:40:00,
2013-05-14 16:45:00,56.7,12.4,29.18,ESE,103,0.0,0.0,17,0.00,,---,0.00,VWS V14.01,2013-05-14 20:45:00,
2013-05-14 16:50:00,56.7,12.4,29.18,ESE,121,2.7,3.6,17,0.00,,---,0.00,VWS V14.01,2013-05-14 20:50:00,
2013-05-14 16:55:00,56.7,12.4,29.18,ESE,120,0.0,0.0,17,0.00,,---,0.00,VWS V14.01,2013-05-14 20:55:00,
2013-05-14 17:00:00,56.8,12.5,29.18,East,79,0.0,0.0,17,0.00,,---,0.00,VWS V14.01,2013-05-14 21:00:00,
2013-05-14 17:05:00,56.7,12.4,29.18,ENE,75,0.0,0.0,17,0.00,,---,0.00,VWS V14.01,2013-05-14 21:05:00,
2013-05-14 17:10:00,56.8,12.5,29.18,NE,39,0.0,0.0,17,0.00,,---,0.00,VWS V14.01,2013-05-14 21:10:00,
2013-05-14 17:15:00,56.8,12.5,29.18,NE,39,0.0,0.0,17,0.00,,---,0.00,VWS V14.01,2013-05-14 21:15:00,
2013-05-14 17:20:00,56.8,12.5,29.18,NNE,31,0.0,0.0,17,0.00,,---,0.00,VWS V14.01,2013-05-14 21:20:00,
2013-05-14 17:25:00,56.7,12.4,29.18,East,93,0.0,0.0,17,0.00,,---,0.00,VWS V14.01,2013-05-14 21:25:00,
2013-05-14 17:30:00,56.5,12.2,29.18,ENE,70,0.0,0.0,17,0.00,,---,0.00,VWS V14.01,2013-05-14 21:30:00,
2013-05-14 17:35:00,56.5,12.2,29.18,East,88,0.0,0.0,17,0.00,,---,0.00,VWS V14.01,2013-05-14 21:35:00,
2013-05-14 17:40:00,56.3,12.1,29.18,ENE,60,0.0,0.0,17,0.00,,---,0.00,VWS V14.01,2013-05-14 21:40:00,
2013-05-14 17:46:00,56.1,11.9,29.18,ENE,60,0.0,0.0,17,0.00,,---,0.00,VWS V14.01,2013-05-14 21:46:00,
2013-05-14 17:51:00,55.9,11.8,29.18,ENE,74,2.7,2.7,17,0.00,,---,0.00,VWS V14.01,2013-05-14 21:51:00,
2013-05-14 17:56:00,55.9,11.8,29.18,ENE,71,0.0,3.6,17,0.00,,---,0.00,VWS V14.01,2013-05-14 21:56:00,
2013-05-14 18:01:00,55.9,11.8,29.18,ENE,60,2.7,4.0,17,0.00,,---,0.00,VWS V14.01,2013-05-14 22:01:00,
2013-05-14 18:06:00,55.8,11.6,29.18,ENE,70,3.1,4.0,17,0.00,,---,0.00,VWS V14.01,2013-05-14 22:06:00,
2013-05-14 18:11:00,55.8,11.6,29.18,East,86,0.0,2.7,17,0.00,,---,0.00,VWS V14.01,2013-05-14 22:11:00,
2013-05-14 18:16:00,55.6,11.5,29.18,ESE,102,0.0,0.0,17,0.00,,---,0.00,VWS V14.01,2013-05-14 22:16:00,
2013-05-14 18:21:00,55.4,11.3,29.18,East,87,0.0,0.0,17,0.00,,---,0.00,VWS V14.01,2013-05-14 22:21:00,
2013-05-14 18:26:00,55.0,11.0,29.18,East,88,0.0,4.0,17,0.00,,---,0.00,VWS V14.01,2013-05-14 22:26:00,
2013-05-14 18:31:00,54.9,10.9,29.18,ESE,105,0.0,3.6,17,0.00,,---,0.00,VWS V14.01,2013-05-14 22:31:00,
2013-05-14 18:37:00,54.7,10.7,29.18,SSE,152,0.0,0.0,17,0.00,,---,0.00,VWS V14.01,2013-05-14 22:37:00,
2013-05-14 18:42:00,54.3,11.7,29.18,SSE,152,0.0,0.0,18,0.00,,---,0.00,VWS V14.01,2013-05-14 22:42:00,
2013-05-14 18:48:00,54.1,11.6,29.18,SSE,152,0.0,0.0,18,0.00,,---,0.00,VWS V14.01,2013-05-14 22:48:00,
2013-05-14 18:53:00,54.0,11.4,29.18,SE,131,0.0,0.0,18,0.00,,---,0.00,VWS V14.01,2013-05-14 22:53:00,
2013-05-14 18:58:00,53.6,11.1,29.18,ESE,109,3.1,3.1,18,0.00,,---,0.00,VWS V14.01,2013-05-14 22:58:00,
2013-05-14 19:03:00,53.6,11.1,29.18,South,184,0.0,0.0,18,0.00,,---,0.00,VWS V14.01,2013-05-14 23:03:00,
2013-05-14 19:08:00,53.4,11.0,29.18,SE,145,0.0,0.0,18,0.00,,---,0.00,VWS V14.01,2013-05-14 23:08:00,
2013-05-14 19:14:00,53.2,10.9,29.18,East,95,0.0,3.1,18,0.00,,---,0.00,VWS V14.01,2013-05-14 23:14:00,
2013-05-14 19:19:00,53.1,10.7,29.18,East,86,0.0,0.0,18,0.00,,---,0.00,VWS V14.01,2013-05-14 23:19:00,
2013-05-14 19:24:00,52.9,10.6,29.18,East,86,0.0,0.0,18,0.00,,---,0.00,VWS V14.01,2013-05-14 23:24:00,
2013-05-14 19:29:00,52.5,10.2,29.18,East,86,0.0,0.0,18,0.00,,---,0.00,VWS V14.01,2013-05-14 23:29:00,
2013-05-14 19:34:00,52.3,10.1,29.18,East,86,0.0,0.0,18,0.00,,---,0.00,VWS V14.01,2013-05-14 23:34:00,
2013-05-14 19:39:00,52.2,10.0,29.18,East,86,0.0,0.0,18,0.00,,---,0.00,VWS V14.01,2013-05-14 23:39:00,
2013-05-14 19:44:00,52.0,9.8,29.18,East,86,0.0,0.0,18,0.00,,---,0.00,VWS V14.01,2013-05-14 23:44:00,
2013-05-14 19:49:00,51.6,9.5,29.18,East,86,0.0,0.0,18,0.00,,---,0.00,VWS V14.01,2013-05-14 23:49:00,
2013-05-14 19:54:00,51.4,9.4,29.18,East,86,0.0,0.0,18,0.00,,---,0.00,VWS V14.01,2013-05-14 23:54:00,
2013-05-14 19:59:00,51.3,9.2,29.18,East,86,0.0,0.0,18,0.00,,---,0.00,VWS V14.01,2013-05-14 23:59:00,
2013-05-14 20:05:00,51.1,9.1,29.18,East,86,0.0,0.0,18,0.00,,---,0.00,VWS V14.01,2013-05-15 00:05:00,
2013-05-14 20:10:00,50.9,8.9,29.18,East,86,0.0,0.0,18,0.00,,---,0.00,VWS V14.01,2013-05-15 00:10:00,
2013-05-14 20:15:00,50.7,10.0,29.18,East,86,0.0,0.0,19,0.00,,---,0.00,VWS V14.01,2013-05-15 00:15:00,
2013-05-14 20:20:00,50.5,9.8,29.18,East,86,0.0,0.0,19,0.00,,---,0.00,VWS V14.01,2013-05-15 00:20:00,
2013-05-14 20:25:00,50.4,9.7,29.18,East,86,0.0,0.0,19,0.00,,---,0.00,VWS V14.01,2013-05-15 00:25:00,
2013-05-14 20:30:00,50.2,9.5,29.18,East,86,0.0,0.0,19,0.00,,---,0.00,VWS V14.01,2013-05-15 00:30:00,
2013-05-14 20:35:00,50.0,9.4,29.18,East,86,0.0,0.0,19,0.00,,---,0.00,VWS V14.01,2013-05-15 00:35:00,
2013-05-14 20:40:00,49.8,9.2,29.18,East,86,0.0,0.0,19,0.00,,---,0.00,VWS V14.01,2013-05-15 00:40:00,
2013-05-14 20:45:00,49.8,9.2,29.21,East,86,0.0,0.0,19,0.00,,---,0.00,VWS V14.01,2013-05-15 00:45:00,
2013-05-14 20:50:00,49.6,9.1,29.21,East,86,0.0,0.0,19,0.00,,---,0.00,VWS V14.01,2013-05-15 00:50:00,
2013-05-14 20:55:00,49.6,9.1,29.21,East,86,0.0,0.0,19,0.00,,---,0.00,VWS V14.01,2013-05-15 00:55:00,
2013-05-14 21:00:00,49.5,8.9,29.21,East,86,0.0,0.0,19,0.00,,---,0.00,VWS V14.01,2013-05-15 01:00:00,
2013-05-14 21:05:00,49.5,8.9,29.21,East,86,0.0,0.0,19,0.00,,---,0.00,VWS V14.01,2013-05-15 01:05:00,
2013-05-14 21:10:00,49.1,4.9,29.21,East,86,0.0,0.0,16,0.00,,---,0.00,VWS V14.01,2013-05-15 01:10:00,
2013-05-14 21:15:00,48.9,4.7,29.21,East,86,0.0,0.0,16,0.00,,---,0.00,VWS V14.01,2013-05-15 01:15:00,
2013-05-14 21:20:00,48.9,4.7,29.21,East,86,0.0,0.0,16,0.00,,---,0.00,VWS V14.01,2013-05-15 01:20:00,
2013-05-14 21:25:00,48.9,4.7,29.21,East,86,0.0,0.0,16,0.00,,---,0.00,VWS V14.01,2013-05-15 01:25:00,
2013-05-14 21:30:00,48.7,4.6,29.21,East,86,0.0,0.0,16,0.00,,---,0.00,VWS V14.01,2013-05-15 01:30:00,
2013-05-14 21:35:00,48.9,4.7,29.21,East,86,0.0,0.0,16,0.00,,---,0.00,VWS V14.01,2013-05-15 01:35:00,
2013-05-14 21:40:00,48.7,4.6,29.21,East,86,0.0,0.0,16,0.00,,---,0.00,VWS V14.01,2013-05-15 01:40:00,
2013-05-14 21:45:00,48.4,4.3,29.21,East,86,0.0,0.0,16,0.00,,---,0.00,VWS V14.01,2013-05-15 01:45:00,
2013-05-14 21:50:00,48.2,4.1,29.21,East,86,0.0,0.0,16,0.00,,---,0.00,VWS V14.01,2013-05-15 01:50:00,
2013-05-14 21:56:00,48.4,4.3,29.21,East,86,0.0,0.0,16,0.00,,---,0.00,VWS V14.01,2013-05-15 01:56:00,
2013-05-14 22:01:00,48.4,4.3,29.21,East,86,0.0,0.0,16,0.00,,---,0.00,VWS V14.01,2013-05-15 02:01:00,
2013-05-14 22:06:00,48.4,4.3,29.21,East,86,0.0,0.0,16,0.00,,---,0.00,VWS V14.01,2013-05-15 02:06:00,
2013-05-14 22:11:00,48.2,4.1,29.21,East,86,0.0,0.0,16,0.00,,---,0.00,VWS V14.01,2013-05-15 02:11:00,
2013-05-14 22:16:00,48.0,4.0,29.21,East,86,0.0,0.0,16,0.00,,---,0.00,VWS V14.01,2013-05-15 02:16:00,
2013-05-14 22:21:00,48.0,7.7,29.21,East,86,0.0,0.0,19,0.00,,---,0.00,VWS V14.01,2013-05-15 02:21:00,
2013-05-14 22:26:00,48.0,7.7,29.21,East,86,0.0,0.0,19,0.00,,---,0.00,VWS V14.01,2013-05-15 02:26:00,
2013-05-14 22:31:00,47.8,7.6,29.21,East,86,0.0,0.0,19,0.00,,---,0.00,VWS V14.01,2013-05-15 02:31:00,
2013-05-14 22:36:00,48.0,7.7,29.21,East,86,0.0,0.0,19,0.00,,---,0.00,VWS V14.01,2013-05-15 02:36:00,
2013-05-14 22:41:00,48.2,7.9,29.21,East,86,0.0,0.0,19,0.00,,---,0.00,VWS V14.01,2013-05-15 02:41:00,
2013-05-14 22:46:00,48.2,7.9,29.21,East,86,0.0,0.0,19,0.00,,---,0.00,VWS V14.01,2013-05-15 02:46:00,
2013-05-14 22:51:00,48.4,8.0,29.21,East,86,0.0,0.0,19,0.00,,---,0.00,VWS V14.01,2013-05-15 02:51:00,
2013-05-14 22:56:00,48.4,8.0,29.21,East,86,0.0,0.0,19,0.00,,---,0.00,VWS V14.01,2013-05-15 02:56:00,
2013-05-14 23:01:00,48.4,8.0,29.21,East,86,0.0,0.0,19,0.00,,---,0.00,VWS V14.01,2013-05-15 03:01:00,
2013-05-14 23:06:00,48.0,7.7,29.21,East,86,0.0,0.0,19,0.00,,---,0.00,VWS V14.01,2013-05-15 03:06:00,
2013-05-14 23:12:00,47.3,7.1,29.21,East,86,0.0,0.0,19,0.00,,---,0.00,VWS V14.01,2013-05-15 03:12:00,
2013-05-14 23:18:00,46.9,6.8,29.23,East,86,0.0,0.0,19,0.00,,---,0.00,VWS V14.01,2013-05-15 03:18:00,
2013-05-14 23:23:00,46.9,6.8,29.23,East,86,0.0,0.0,19,0.00,,---,0.00,VWS V14.01,2013-05-15 03:23:00,
2013-05-14 23:28:00,47.1,7.0,29.23,East,86,0.0,0.0,19,0.00,,---,0.00,VWS V14.01,2013-05-15 03:28:00,
2013-05-14 23:33:00,47.3,7.1,29.23,East,86,0.0,0.0,19,0.00,,---,0.00,VWS V14.01,2013-05-15 03:33:00,
2013-05-14 23:38:00,47.3,7.1,29.23,East,86,0.0,0.0,19,0.00,,---,0.00,VWS V14.01,2013-05-15 03:38:00,
2013-05-14 23:43:00,47.5,7.3,29.23,East,86,0.0,0.0,19,0.00,,---,0.00,VWS V14.01,2013-05-15 03:43:00,
2013-05-14 23:48:00,47.7,7.4,29.23,East,86,0.0,0.0,19,0.00,,---,0.00,VWS V14.01,2013-05-15 03:48:00,
2013-05-14 23:53:00,47.5,7.3,29.23,East,86,0.0,0.0,19,0.00,,---,0.00,VWS V14.01,2013-05-15 03:53:00,
2013-05-14 23:58:00,47.1,7.0,29.23,East,86,0.0,0.0,19,0.00,,---,0.00,VWS V14.01,2013-05-15 03:58:00,